Time;durP1;ratioP1;P1;durP2;ratioP2;P2;SDS_P1;SDS_P2;PMS_P1;PMS_P2;Temp;Humidity;BMP_temperature;BMP_pressure;BME280_temperature;BME280_humidity;BME280_pressure;Samples;Min_cycle;Max_cycle;Signal;HPM_P1;HPM_P2
2021/12/10 00:00:43;;;;;;;37.63;21.87;;;77.00;2227.20;;;;;;4754836;30;20026;-59
2021/12/10 00:03:16;;;;;;;37.77;23.30;;;77.00;2227.20;;;;;;4754756;30;20043;-58
2021/12/10 00:05:45;;;;;;;;;;;77.00;2227.20;;;;;;4739278;30;20035;-59
2021/12/10 00:08:11;;;;;;;38.63;21.77;;;77.00;2227.20;;;;;;4754329;30;20276;-60
2021/12/10 00:10:41;;;;;;;38.50;23.00;;;77.00;2227.20;;;;;;4754528;30;20059;-59
2021/12/10 00:13:08;;;;;;;35.23;22.07;;;77.10;2227.20;;;;;;4754535;30;20064;-59
2021/12/10 00:15:36;;;;;;;36.70;22.67;;;77.10;2227.20;;;;;;4754579;30;20040;-60
2021/12/10 00:18:05;;;;;;;38.30;23.50;;;77.10;2227.20;;;;;;4754504;30;20024;-59
2021/12/10 00:20:34;;;;;;;33.27;21.07;;;77.10;2227.20;;;;;;4754470;30;20122;-59
2021/12/10 00:23:09;;;;;;;35.10;21.93;;;77.20;2227.20;;;;;;4754677;30;20031;-59
2021/12/10 00:25:40;;;;;;;37.33;21.83;;;77.20;2227.20;;;;;;4754371;30;20020;-59
2021/12/10 00:28:17;;;;;;;43.03;25.00;;;77.20;2227.20;;;;;;4738301;30;20533;-59
2021/12/10 00:31:04;;;;;;;36.50;23.47;;;77.30;2227.20;;;;;;4754281;30;20028;-59
2021/12/10 00:33:41;;;;;;;37.60;23.27;;;77.20;2227.20;;;;;;4754813;30;20118;-59
2021/12/10 00:36:08;;;;;;;36.33;22.90;;;77.20;2227.20;;;;;;4754150;30;20047;-59
2021/12/10 00:38:35;;;;;;;37.63;23.60;;;77.20;2227.20;;;;;;4754298;30;20433;-59
2021/12/10 00:41:04;;;;;;;38.07;24.33;;;77.00;2227.20;;;;;;4754112;30;20035;-59
2021/12/10 00:43:30;;;;;;;37.70;23.37;;;77.00;2227.20;;;;;;4754021;30;20111;-59
2021/12/10 00:45:56;;;;;;;35.50;23.43;;;77.00;2227.20;;;;;;4754208;30;20028;-59
2021/12/10 00:48:22;;;;;;;37.00;22.37;;;77.00;2227.20;;;;;;4753933;30;20032;-59
2021/12/10 00:50:54;;;;;;;38.90;24.03;;;77.00;2227.20;;;;;;4754149;30;20119;-59
2021/12/10 00:53:20;;;;;;;40.70;23.40;;;76.90;2227.20;;;;;;4754134;30;20509;-59
2021/12/10 00:55:46;;;;;;;38.53;23.87;;;76.90;2227.20;;;;;;4753758;30;20101;-59
2021/12/10 00:58:13;;;;;;;38.13;23.00;;;77.00;2227.20;;;;;;4753882;30;20064;-58
2021/12/10 01:00:43;;;;;;;36.43;22.73;;;77.00;2227.20;;;;;;4753737;30;20044;-59
2021/12/10 01:03:12;;;;;;;37.13;22.23;;;77.00;2227.20;;;;;;4753930;30;20391;-58
2021/12/10 01:05:42;;;;;;;37.97;23.47;;;77.10;2227.20;;;;;;4753735;30;20089;-58
2021/12/10 01:08:08;;;;;;;37.60;23.37;;;77.00;2227.20;;;;;;4754216;30;20043;-58
2021/12/10 01:10:46;;;;;;;42.40;24.67;;;77.00;2227.20;;;;;;4753537;30;20170;-58
2021/12/10 01:13:16;;;;;;;37.87;23.93;;;77.10;2227.20;;;;;;4753608;30;20142;-59
2021/12/10 01:24:19;;;;;;;37.27;23.23;;;77.30;2227.20;;;;;;4753769;30;20124;-58
2021/12/10 01:29:47;;;;;;;38.07;22.27;;;77.30;2227.20;;;;;;4753265;30;20422;-59
2021/12/10 01:32:17;;;;;;;40.03;24.47;;;77.40;2227.20;;;;;;4750553;30;20486;-59
2021/12/10 01:34:44;;;;;;;42.23;24.13;;;77.30;2227.20;;;;;;4753096;30;20028;-59
2021/12/10 01:37:11;;;;;;;46.07;27.37;;;77.30;2227.20;;;;;;4753464;30;20064;-59
2021/12/10 01:39:40;;;;;;;43.33;26.03;;;77.20;2227.20;;;;;;4753161;30;20447;-58
2021/12/10 01:42:15;;;;;;;46.90;26.83;;;77.20;2227.20;;;;;;4753179;30;20028;-58
2021/12/10 01:44:46;;;;;;;45.60;26.83;;;77.20;2227.20;;;;;;4753089;30;20092;-59
2021/12/10 01:47:15;;;;;;;46.73;26.10;;;77.30;2227.20;;;;;;4753195;30;20371;-58
2021/12/10 01:49:43;;;;;;;45.30;26.40;;;77.40;2227.20;;;;;;4753014;30;20040;-59
2021/12/10 01:52:11;;;;;;;44.70;27.73;;;77.30;2227.20;;;;;;4753289;30;20055;-58
2021/12/10 01:54:43;;;;;;;45.17;27.07;;;77.30;2227.20;;;;;;4752976;30;20033;-59
2021/12/10 01:57:10;;;;;;;40.13;23.83;;;77.20;2227.20;;;;;;4753087;30;20505;-59
2021/12/10 01:59:37;;;;;;;38.37;24.80;;;77.30;2227.20;;;;;;4752944;30;20067;-58
2021/12/10 02:02:08;;;;;;;36.73;23.87;;;77.20;2227.20;;;;;;4753093;30;20389;-59
2021/12/10 02:04:37;;;;;;;37.33;24.03;;;77.10;2227.20;;;;;;4753016;30;20554;-59
2021/12/10 02:07:05;;;;;;;40.77;24.80;;;77.10;2227.20;;;;;;4752994;30;20428;-59
2021/12/10 02:09:31;;;;;;;37.63;23.43;;;77.10;2227.20;;;;;;4736978;30;20024;-59
2021/12/10 02:11:57;;;;;;;41.57;24.50;;;77.10;2227.20;;;;;;4753222;30;20470;-59
2021/12/10 02:14:23;;;;;;;35.03;23.40;;;77.10;2227.20;;;;;;4752701;30;20086;-59
2021/12/10 02:16:52;;;;;;;36.53;22.17;;;77.00;2227.20;;;;;;4752698;30;20537;-59
2021/12/10 02:19:19;;;;;;;40.90;23.37;;;77.00;2227.20;;;;;;4736862;30;20036;-59
2021/12/10 02:21:46;;;;;;;39.73;24.33;;;77.00;2227.20;;;;;;4752672;30;20032;-58
2021/12/10 02:24:12;;;;;;;38.53;24.57;;;77.00;2227.20;;;;;;4752727;30;20029;-59
2021/12/10 02:26:47;;;;;;;37.10;22.73;;;76.90;2227.20;;;;;;4752789;30;20024;-59
2021/12/10 02:29:14;;;;;;;38.47;24.70;;;77.00;2227.20;;;;;;4752526;30;20057;-59
2021/12/10 02:31:40;;;;;;;39.60;24.57;;;77.00;2227.20;;;;;;4753183;30;20036;-59
2021/12/10 02:34:08;;;;;;;36.67;23.23;;;77.00;2227.20;;;;;;4740360;30;20044;-58
2021/12/10 02:36:39;;;;;;;35.53;22.30;;;77.00;2227.20;;;;;;4754875;30;20044;-58
2021/12/10 02:39:05;;;;;;;35.20;23.27;;;77.10;2227.20;;;;;;4756243;30;20024;-59
2021/12/10 02:41:32;;;;;;;39.90;24.97;;;77.00;2227.20;;;;;;4756152;30;20160;-59
2021/12/10 02:44:00;;;;;;;39.37;23.90;;;77.00;2227.20;;;;;;4756092;30;20032;-59
2021/12/10 02:46:27;;;;;;;37.17;23.40;;;77.00;2227.20;;;;;;4755982;30;20040;-59
2021/12/10 02:48:54;;;;;;;38.83;22.43;;;77.00;2227.20;;;;;;4756047;30;20478;-58
2021/12/10 02:51:22;;;;;;;39.63;23.27;;;77.00;2227.20;;;;;;4755943;30;20036;-58
2021/12/10 02:53:48;;;;;;;36.20;22.33;;;77.00;2227.20;;;;;;4756171;30;20032;-59
2021/12/10 02:56:19;;;;;;;37.67;23.13;;;77.10;2227.20;;;;;;4755821;30;20458;-60
2021/12/10 02:58:47;;;;;;;38.80;23.43;;;77.00;2227.20;;;;;;4755906;30;20036;-59
2021/12/10 03:01:25;;;;;;;37.53;22.70;;;77.10;2227.20;;;;;;4755793;30;20036;-59
2021/12/10 03:03:51;;;;;;;36.47;22.97;;;77.10;2227.20;;;;;;4739809;30;20028;-59
2021/12/10 03:06:18;;;;;;;38.23;23.67;;;77.20;2227.20;;;;;;4755636;30;20040;-59
2021/12/10 03:08:48;;;;;;;32.77;21.90;;;77.20;2227.20;;;;;;4755821;30;20028;-59
2021/12/10 03:11:17;;;;;;;37.00;23.53;;;77.30;2227.20;;;;;;4755657;30;20039;-59
2021/12/10 03:13:43;;;;;;;33.27;22.63;;;77.30;2227.20;;;;;;4755578;30;20430;-59
2021/12/10 03:16:09;;;;;;;36.80;23.03;;;77.40;2227.20;;;;;;4755727;30;20398;-59
2021/12/10 03:18:36;;;;;;;34.63;22.50;;;77.40;2227.20;;;;;;4755542;30;20059;-60
2021/12/10 03:21:09;;;;;;;37.27;23.87;;;77.50;2227.20;;;;;;4755494;30;20036;-59
2021/12/10 03:23:37;;;;;;;35.17;22.20;;;77.40;2227.20;;;;;;4755700;30;20107;-59
2021/12/10 03:26:04;;;;;;;34.40;22.30;;;77.40;2227.20;;;;;;4755413;30;20082;-58
2021/12/10 03:28:30;;;;;;;35.77;23.40;;;77.40;2227.20;;;;;;4755162;30;20060;-59
2021/12/10 03:30:56;;;;;;;41.40;25.33;;;77.40;2227.20;;;;;;4755408;30;20043;-58
2021/12/10 03:33:22;;;;;;;38.97;25.93;;;77.30;2227.20;;;;;;4755530;30;20028;-59
2021/12/10 03:35:50;;;;;;;45.17;28.57;;;77.30;2227.20;;;;;;4755281;30;20431;-59
2021/12/10 03:38:21;;;;;;;54.97;33.27;;;77.20;2227.20;;;;;;4755132;30;20489;-60
2021/12/10 03:40:48;;;;;;;56.37;32.97;;;77.20;2227.20;;;;;;4755205;30;20035;-59
2021/12/10 03:43:16;;;;;;;45.67;28.17;;;77.20;2227.20;;;;;;4754987;30;20036;-59
2021/12/10 03:45:46;;;;;;;41.60;26.57;;;77.20;2227.20;;;;;;4755062;30;20031;-59
2021/12/10 03:48:16;;;;;;;42.83;26.07;;;77.10;2227.20;;;;;;4755286;30;20398;-59
2021/12/10 03:50:44;;;;;;;38.33;24.17;;;77.00;2227.20;;;;;;4754927;30;20036;-59
2021/12/10 03:53:11;;;;;;;41.80;25.30;;;77.00;2227.20;;;;;;4754964;30;20047;-58
2021/12/10 03:55:37;;;;;;;41.77;26.50;;;77.00;2227.20;;;;;;4754746;30;20106;-58
2021/12/10 03:58:03;;;;;;;44.27;27.70;;;77.00;2227.20;;;;;;4754758;30;20036;-58
2021/12/10 04:00:32;;;;;;;48.20;29.43;;;77.00;2227.20;;;;;;4755371;30;20391;-59
2021/12/10 04:03:01;;;;;;;47.30;28.80;;;77.00;2227.20;;;;;;4754862;30;20115;-59
2021/12/10 04:05:27;;;;;;;41.33;27.13;;;77.00;2227.20;;;;;;4754621;30;20032;-58
2021/12/10 04:07:53;;;;;;;43.10;27.00;;;77.00;2227.20;;;;;;4754765;30;20028;-59
2021/12/10 04:10:20;;;;;;;45.97;27.53;;;77.00;2227.20;;;;;;4754627;30;20036;-58
2021/12/10 04:12:46;;;;;;;46.80;28.27;;;77.00;2227.20;;;;;;4756882;30;20038;-59
2021/12/10 04:15:14;;;;;;;49.90;30.13;;;77.00;2227.20;;;;;;4754791;30;20107;-58
2021/12/10 04:17:40;;;;;;;46.37;29.37;;;77.00;2227.20;;;;;;4754554;30;20040;-59
2021/12/10 04:20:09;;;;;;;47.87;29.73;;;77.00;2227.20;;;;;;4754529;30;20035;-58
2021/12/10 04:22:35;;;;;;;43.93;27.93;;;76.90;2227.20;;;;;;4754455;30;20036;-58
2021/12/10 04:25:05;;;;;;;48.97;30.63;;;76.90;2227.20;;;;;;4754451;30;20492;-59
2021/12/10 04:27:31;;;;;;;52.10;31.37;;;76.90;2227.20;;;;;;4754438;30;20052;-59
2021/12/10 04:29:58;;;;;;;53.07;31.27;;;77.00;2227.20;;;;;;4754319;30;20039;-59
2021/12/10 04:32:26;;;;;;;51.33;32.47;;;77.00;2227.20;;;;;;4754284;30;20048;-58
2021/12/10 04:34:53;;;;;;;54.40;31.53;;;77.00;2227.20;;;;;;4754224;30;20032;-58
2021/12/10 04:37:20;;;;;;;51.87;30.63;;;77.00;2227.20;;;;;;4754154;30;20482;-58
2021/12/10 04:39:48;;;;;;;47.47;29.03;;;77.00;2227.20;;;;;;4754207;30;20039;-58
2021/12/10 04:42:18;;;;;;;51.57;31.07;;;77.00;2227.20;;;;;;4754133;30;20032;-58
2021/12/10 04:44:44;;;;;;;51.57;29.70;;;77.00;2227.20;;;;;;4753998;30;20118;-58
2021/12/10 04:47:10;;;;;;;56.27;31.73;;;77.10;2227.20;;;;;;4754306;30;20078;-58
2021/12/10 04:49:37;;;;;;;50.90;30.07;;;77.10;2227.20;;;;;;4754394;30;20111;-58
2021/12/10 04:52:05;;;;;;;54.90;31.97;;;77.10;2227.20;;;;;;4753964;30;20028;-58
2021/12/10 04:54:31;;;;;;;49.90;30.97;;;77.30;2227.20;;;;;;4753365;30;20032;-58
2021/12/10 04:56:58;;;;;;;57.63;34.73;;;77.30;2227.20;;;;;;4754006;30;20490;-58
2021/12/10 04:59:28;;;;;;;60.80;35.40;;;77.40;2227.20;;;;;;4753918;30;20153;-59
2021/12/10 05:01:56;;;;;;;57.63;35.30;;;77.40;2227.20;;;;;;4753804;30;20059;-58
2021/12/10 05:04:24;;;;;;;70.47;42.67;;;77.50;2227.20;;;;;;4753791;30;20094;-59
2021/12/10 05:06:51;;;;;;;112.43;68.83;;;77.50;2227.20;;;;;;4753766;30;20036;-59
2021/12/10 05:09:18;;;;;;;83.33;49.23;;;77.50;2227.20;;;;;;4753632;30;20020;-60
2021/12/10 05:11:44;;;;;;;89.60;54.00;;;77.50;2227.20;;;;;;4753619;30;20119;-60
2021/12/10 05:14:10;;;;;;;69.90;43.60;;;77.60;2227.20;;;;;;4753935;30;20069;-60
2021/12/10 05:16:42;;;;;;;60.53;38.20;;;77.60;2227.20;;;;;;4737565;30;20185;-59
2021/12/10 05:19:09;;;;;;;59.00;35.87;;;77.60;2227.20;;;;;;4753544;30;20486;-59
2021/12/10 05:21:36;;;;;;;58.33;36.40;;;77.60;2227.20;;;;;;4753447;30;20039;-60
2021/12/10 05:24:04;;;;;;;57.20;36.50;;;77.60;2227.20;;;;;;4753392;30;20044;-60
2021/12/10 05:26:31;;;;;;;55.10;34.63;;;77.60;2227.20;;;;;;4753305;30;20135;-60
2021/12/10 05:28:57;;;;;;;57.63;35.17;;;77.60;2227.20;;;;;;4753123;30;20518;-60
2021/12/10 05:31:24;;;;;;;51.37;33.37;;;77.60;2227.20;;;;;;4753256;30;20047;-60
2021/12/10 05:33:50;;;;;;;60.10;38.23;;;77.60;2227.20;;;;;;4753469;30;20398;-59
2021/12/10 05:36:17;;;;;;;68.20;41.27;;;77.70;2227.20;;;;;;4753103;30;20075;-58
2021/12/10 05:38:43;;;;;;;78.83;47.60;;;102.40;2227.20;;;;;;4753196;30;20036;-59
2021/12/10 05:41:10;;;;;;;83.93;50.60;;;77.70;2227.20;;;;;;4753158;30;20115;-60
2021/12/10 05:43:41;;;;;;;81.67;49.67;;;102.40;2227.20;;;;;;4753139;30;20028;-58
2021/12/10 05:46:07;;;;;;;80.73;46.60;;;77.70;2227.20;;;;;;4753155;30;20182;-58
2021/12/10 05:48:33;;;;;;;99.90;53.13;;;77.70;2227.20;;;;;;4753057;30;20478;-59
2021/12/10 05:50:59;;;;;;;92.23;49.60;;;77.70;2227.20;;;;;;4753103;30;20036;-58
2021/12/10 05:53:25;;;;;;;85.97;47.07;;;77.70;2227.20;;;;;;4753196;30;20584;-59
2021/12/10 05:55:52;;;;;;;90.13;50.50;;;102.40;2227.20;;;;;;4752933;30;20075;-59
2021/12/10 05:58:19;;;;;;;84.60;47.70;;;77.70;2227.20;;;;;;4752916;30;20040;-60
2021/12/10 06:00:49;;;;;;;77.70;45.50;;;77.70;2227.20;;;;;;4757461;30;20035;-58
2021/12/10 06:03:17;;;;;;;75.73;45.40;;;77.70;2227.20;;;;;;4767775;30;20066;-60
2021/12/10 06:05:44;;;;;;;76.20;47.50;;;77.70;2227.20;;;;;;4770284;30;20460;-59
2021/12/10 06:08:11;;;;;;;84.10;51.47;;;77.70;2227.20;;;;;;4770131;30;20107;-58
2021/12/10 06:10:38;;;;;;;86.50;51.23;;;77.70;2227.20;;;;;;4769356;30;20024;-60
2021/12/10 06:13:05;;;;;;;92.87;53.53;;;77.70;2227.20;;;;;;4755088;30;20140;-59
2021/12/10 06:15:31;;;;;;;85.23;51.13;;;102.40;2227.20;;;;;;4752746;30;20115;-58
2021/12/10 06:17:57;;;;;;;96.17;56.50;;;77.70;2227.20;;;;;;4752968;30;20596;-58
2021/12/10 06:20:28;;;;;;;103.37;59.17;;;77.70;2227.20;;;;;;4752689;30;20055;-59
2021/12/10 06:22:55;;;;;;;99.80;58.23;;;102.40;2227.20;;;;;;4770213;30;20043;-59
2021/12/10 06:25:21;;;;;;;88.67;52.67;;;102.40;2227.20;;;;;;4770651;30;20039;-59
2021/12/10 06:27:47;;;;;;;109.60;63.63;;;102.40;2227.20;;;;;;4770237;30;20105;-59
2021/12/10 06:30:20;;;;;;;99.00;60.67;;;102.40;2227.20;;;;;;4770414;30;20052;-59
2021/12/10 06:32:51;;;;;;;89.93;55.00;;;77.70;2227.20;;;;;;4762035;30;20118;-58
2021/12/10 06:35:18;;;;;;;96.67;56.63;;;77.70;2227.20;;;;;;4761623;30;20058;-58
2021/12/10 06:37:44;;;;;;;86.63;52.13;;;77.60;2227.20;;;;;;4760062;30;20032;-59
2021/12/10 06:40:14;;;;;;;82.23;50.47;;;77.50;2227.20;;;;;;4761323;30;20020;-59
2021/12/10 06:42:40;;;;;;;78.17;48.00;;;77.50;2227.20;;;;;;4761818;30;21457;-59
2021/12/10 06:45:12;;;;;;;94.33;57.93;;;77.60;2227.20;;;;;;4760993;30;20044;-59
2021/12/10 06:47:40;;;;;;;81.40;50.37;;;77.60;2227.20;;;;;;4759825;30;20028;-59
2021/12/10 06:50:08;;;;;;;83.13;50.27;;;77.60;2227.20;;;;;;4761798;30;20030;-60
2021/12/10 06:52:34;;;;;;;76.47;46.53;;;77.60;2227.20;;;;;;4760998;30;20029;-58
2021/12/10 06:55:00;;;;;;;82.37;50.07;;;77.60;2227.20;;;;;;4760034;30;20042;-59
2021/12/10 06:57:25;;;;;;;79.53;49.00;;;77.60;2227.20;;;;;;4761760;30;20498;-60
2021/12/10 06:59:53;;;;;;;71.10;44.97;;;77.50;2227.20;;;;;;4760584;30;20048;-59
2021/12/10 07:02:19;;;;;;;62.13;38.43;;;77.50;2227.20;;;;;;4760055;30;20111;-60
2021/12/10 07:04:45;;;;;;;58.90;38.03;;;77.60;2227.20;;;;;;4767430;30;20028;-58
2021/12/10 07:07:12;;;;;;;57.43;36.43;;;77.70;2227.20;;;;;;4770064;30;20036;-58
2021/12/10 07:09:39;;;;;;;57.63;36.47;;;77.70;2227.20;;;;;;4770091;30;20478;-58
2021/12/10 07:12:07;;;;;;;57.03;35.40;;;77.60;2227.20;;;;;;4770097;30;20432;-58
2021/12/10 07:14:34;;;;;;;57.60;36.37;;;77.50;2227.20;;;;;;4770031;30;20505;-58
2021/12/10 07:17:00;;;;;;;69.37;44.13;;;77.50;2227.20;;;;;;4768686;30;20044;-58
2021/12/10 07:19:28;;;;;;;73.23;47.33;;;77.50;2227.20;;;;;;4772965;30;20092;-58
2021/12/10 07:21:54;;;;;;;69.80;45.17;;;77.40;2227.20;;;;;;4773144;30;20032;-58
2021/12/10 07:24:21;;;;;;;64.57;40.33;;;77.40;2227.20;;;;;;4773138;30;20028;-58
2021/12/10 07:26:48;;;;;;;64.97;42.23;;;77.50;2227.20;;;;;;4773168;30;20042;-58
2021/12/10 07:29:14;;;;;;;67.50;41.70;;;77.50;2227.20;;;;;;4772024;30;20044;-58
2021/12/10 07:31:42;;;;;;;63.37;37.73;;;77.50;2227.20;;;;;;4766123;30;20503;-60
2021/12/10 07:34:08;;;;;;;54.90;34.87;;;77.40;2227.20;;;;;;4763812;30;20071;-60
2021/12/10 07:36:34;;;;;;;57.07;35.23;;;77.50;2227.20;;;;;;4763513;30;20036;-59
2021/12/10 07:39:00;;;;;;;60.80;37.20;;;77.40;2227.20;;;;;;4762321;30;20035;-59
2021/12/10 07:41:26;;;;;;;60.80;37.77;;;77.40;2227.20;;;;;;4761786;30;20046;-59
2021/12/10 07:43:53;;;;;;;60.87;38.47;;;77.40;2227.20;;;;;;4763233;30;20031;-59
2021/12/10 07:46:19;;;;;;;59.27;37.40;;;77.40;2227.20;;;;;;4761995;30;20032;-59
2021/12/10 07:48:45;;;;;;;63.47;39.53;;;77.50;2227.20;;;;;;4761974;30;20478;-59
2021/12/10 07:51:16;;;;;;;68.67;42.50;;;77.40;2227.20;;;;;;4763099;30;20032;-58
2021/12/10 07:53:43;;;;;;;54.33;34.93;;;77.40;2227.20;;;;;;4762227;30;20032;-62
2021/12/10 07:56:12;;;;;;;59.07;35.30;;;77.40;2227.20;;;;;;4765165;30;20494;-59
2021/12/10 07:58:40;;;;;;;66.63;38.17;;;77.40;2227.20;;;;;;4761185;30;20039;-60
2021/12/10 08:01:16;;;;;;;69.60;37.77;;;77.30;2227.20;;;;;;4758556;30;20376;-59
2021/12/10 08:03:42;;;;;;;64.90;36.77;;;77.40;2227.20;;;;;;4762669;30;20036;-59
2021/12/10 08:06:08;;;;;;;68.40;41.70;;;77.40;2227.20;;;;;;4759749;30;20039;-60
2021/12/10 08:08:35;;;;;;;74.50;40.07;;;77.50;2227.20;;;;;;4753702;30;20040;-60
2021/12/10 08:11:01;;;;;;;83.10;45.53;;;77.50;2227.20;;;;;;4754071;30;20035;-59
2021/12/10 08:13:29;;;;;;;82.20;44.53;;;77.50;2227.20;;;;;;4753620;30;20035;-58
2021/12/10 08:15:55;;;;;;;72.73;40.97;;;77.60;2227.20;;;;;;4753629;30;20479;-59
2021/12/10 08:18:22;;;;;;;86.27;47.77;;;77.50;2227.20;;;;;;4759860;30;20035;-59
2021/12/10 08:20:48;;;;;;;88.73;47.93;;;77.50;2227.20;;;;;;4759571;30;20547;-60
2021/12/10 08:23:14;;;;;;;101.13;55.73;;;77.50;2227.20;;;;;;4761155;30;20081;-60
2021/12/10 08:25:40;;;;;;;110.90;61.10;;;77.70;2227.20;;;;;;4762909;30;20036;-60
2021/12/10 08:28:07;;;;;;;110.70;57.77;;;77.70;2227.20;;;;;;4717345;30;1363099;-60
2021/12/10 08:30:35;;;;;;;116.10;59.17;;;77.70;2227.20;;;;;;4746465;30;20029;-59
2021/12/10 08:33:01;;;;;;;108.90;58.47;;;77.70;2227.20;;;;;;4762057;30;20182;-59
2021/12/10 08:35:30;;;;;;;158.73;74.47;;;77.70;2227.20;;;;;;4762612;30;20039;-60
2021/12/10 08:37:59;;;;;;;170.73;78.00;;;77.70;2227.20;;;;;;4761139;30;20024;-60
2021/12/10 08:40:30;;;;;;;134.67;66.73;;;77.70;2227.20;;;;;;4754845;30;20036;-60
2021/12/10 08:42:56;;;;;;;116.27;66.33;;;77.70;2227.20;;;;;;4761938;30;20035;-60
2021/12/10 08:45:23;;;;;;;123.40;68.73;;;77.70;2227.20;;;;;;4763338;30;20027;-60
2021/12/10 08:47:50;;;;;;;116.47;64.17;;;102.40;2227.20;;;;;;4767328;30;20027;-59
2021/12/10 08:50:22;;;;;;;133.73;70.13;;;77.70;2227.20;;;;;;4747791;30;20016;-59
2021/12/10 08:52:50;;;;;;;117.63;64.47;;;77.70;2227.20;;;;;;4761440;30;20031;-59
2021/12/10 08:55:17;;;;;;;128.80;68.67;;;77.70;2227.20;;;;;;4746847;30;20445;-59
2021/12/10 08:57:44;;;;;;;125.70;63.83;;;77.70;2227.20;;;;;;4753870;30;20086;-59
2021/12/10 09:00:11;;;;;;;94.57;52.50;;;102.40;2227.20;;;;;;4737801;30;20506;-59
2021/12/10 09:02:38;;;;;;;116.00;55.73;;;77.70;2227.20;;;;;;4753770;30;20445;-59
2021/12/10 09:05:07;;;;;;;129.87;72.57;;;102.40;2227.20;;;;;;4752091;30;20044;-60
2021/12/10 09:07:33;;;;;;;102.07;55.00;;;102.40;2227.20;;;;;;4753495;30;20070;-59
2021/12/10 09:10:00;;;;;;;100.67;55.27;;;102.40;2227.20;;;;;;4757304;30;20077;-59
2021/12/10 09:12:27;;;;;;;107.67;62.73;;;102.50;2227.20;;;;;;4753523;30;20086;-60
2021/12/10 09:14:56;;;;;;;90.13;48.93;;;102.70;2227.20;;;;;;4771288;30;20390;-59
2021/12/10 09:17:25;;;;;;;83.23;47.10;;;102.80;2227.20;;;;;;4771184;30;20096;-60
2021/12/10 09:19:54;;;;;;;85.47;46.87;;;102.90;2227.20;;;;;;4771168;30;20020;-59
2021/12/10 09:22:20;;;;;;;89.40;53.10;;;102.90;2227.20;;;;;;4771347;30;20036;-59
2021/12/10 09:24:47;;;;;;;96.13;60.80;;;103.10;2227.20;;;;;;4771167;30;20501;-60
2021/12/10 09:27:14;;;;;;;117.87;65.57;;;103.10;2227.20;;;;;;4770760;30;20028;-59
2021/12/10 09:29:43;;;;;;;81.20;50.83;;;103.20;2227.20;;;;;;4770986;30;20047;-59
2021/12/10 09:32:13;;;;;;;84.47;54.37;;;103.30;2227.20;;;;;;4771048;30;20028;-60
2021/12/10 09:34:39;;;;;;;115.80;73.90;;;103.30;2227.20;;;;;;4771305;30;20386;-59
2021/12/10 09:37:07;;;;;;;94.33;58.83;;;128.00;2252.80;;;;;;4770850;30;20397;-59
2021/12/10 09:39:33;;;;;;;72.10;44.47;;;128.10;2252.80;;;;;;4770912;30;20050;-59
2021/12/10 09:42:01;;;;;;;69.20;41.20;;;128.20;2252.80;;;;;;4770707;30;20032;-59
2021/12/10 09:44:27;;;;;;;71.70;42.87;;;128.30;2252.80;;;;;;4770705;30;20043;-60
2021/12/10 09:46:55;;;;;;;81.17;47.90;;;128.10;2252.80;;;;;;4770817;30;20043;-59
2021/12/10 09:49:24;;;;;;;97.37;60.07;;;128.20;2252.80;;;;;;4770764;30;20097;-59
2021/12/10 09:51:55;;;;;;;76.10;49.20;;;128.40;2252.80;;;;;;4770624;30;20038;-59
2021/12/10 09:54:24;;;;;;;85.10;53.47;;;128.50;2252.80;;;;;;4744733;30;20422;-59
2021/12/10 09:57:11;;;;;;;101.00;61.57;;;128.50;2252.80;;;;;;4759170;30;20048;-59
2021/12/10 09:59:40;;;;;;;113.07;72.70;;;128.60;2252.80;;;;;;4770648;30;20039;-59
2021/12/10 10:02:08;;;;;;;121.40;75.13;;;128.70;2252.80;;;;;;4770638;30;20093;-59
2021/12/10 10:04:36;;;;;;;125.97;70.07;;;128.80;2252.80;;;;;;4770629;30;20028;-59
2021/12/10 10:07:10;;;;;;;147.83;73.63;;;128.80;2252.80;;;;;;4770696;30;20127;-59
2021/12/10 10:09:37;;;;;;;168.90;77.47;;;128.80;2252.80;;;;;;4770480;30;20448;-59
2021/12/10 10:12:10;;;;;;;167.07;78.57;;;128.70;2252.80;;;;;;4770585;30;20061;-59
2021/12/10 10:14:38;;;;;;;176.18;79.50;;;128.70;2252.80;;;;;;4770420;30;20091;-59
2021/12/10 10:17:06;;;;;;;135.73;58.73;;;128.70;2252.80;;;;;;4770218;30;20134;-59
2021/12/10 10:19:32;;;;;;;280.50;90.43;;;128.70;2252.80;;;;;;4770464;30;20063;-59
2021/12/10 10:21:58;;;;;;;179.50;72.97;;;128.70;2252.80;;;;;;4770389;30;20039;-59
2021/12/10 10:24:27;;;;;;;133.57;59.10;;;128.70;2252.80;;;;;;4770559;30;20051;-59
2021/12/10 10:27:07;;;;;;;136.53;60.60;;;128.60;2252.80;;;;;;4770594;30;20039;-57
2021/12/10 10:29:37;;;;;;;138.43;62.80;;;128.40;2252.80;;;;;;4770206;30;20055;-59
2021/12/10 10:32:10;;;;;;;128.77;63.23;;;128.40;2252.80;;;;;;4770149;30;20036;-60
2021/12/10 10:34:43;;;;;;;120.35;57.72;;;128.50;2252.80;;;;;;4770557;30;20043;-60
2021/12/10 10:37:10;;;;;;;115.25;52.75;;;128.40;2252.80;;;;;;4770475;30;20400;-63
2021/12/10 10:39:38;;;;;;;112.07;55.30;;;128.40;2252.80;;;;;;4770276;30;20024;-61
2021/12/10 10:42:09;;;;;;;106.13;53.53;;;128.30;2252.80;;;;;;4754165;30;20036;-61
2021/12/10 10:44:35;;;;;;;161.33;77.63;;;128.40;2252.80;;;;;;4770520;30;20110;-61
2021/12/10 10:47:01;;;;;;;187.00;91.10;;;128.40;2252.80;;;;;;4770523;30;20478;-58
2021/12/10 10:49:43;;;;;;;159.67;77.77;;;128.40;2252.80;;;;;;4770389;30;20032;-59
2021/12/10 10:52:29;;;;;;;215.23;104.67;;;128.50;2252.80;;;;;;4770243;30;20038;-58
2021/12/10 10:55:00;;;;;;;167.53;85.30;;;128.50;2252.80;;;;;;4773956;30;20429;-59
2021/12/10 10:57:30;;;;;;;144.57;70.70;;;128.60;2252.80;;;;;;4773544;30;20099;-60
2021/12/10 11:00:11;;;;;;;141.20;68.50;;;128.60;2252.80;;;;;;4773859;30;20089;-59
2021/12/10 11:02:48;;;;;;;141.17;71.33;;;128.70;2252.80;;;;;;4773689;30;20108;-60
2021/12/10 11:05:14;;;;;;;156.90;81.23;;;128.70;2252.80;;;;;;4773581;30;20036;-59
2021/12/10 11:07:47;;;;;;;162.73;79.87;;;128.70;2252.80;;;;;;4774923;30;20175;-59
2021/12/10 11:10:22;;;;;;;193.35;88.22;;;128.90;2252.80;;;;;;4773530;30;20554;-58
2021/12/10 11:12:48;;;;;;;125.97;63.58;;;128.90;2252.80;;;;;;4769876;30;20032;-59
2021/12/10 11:15:17;;;;;;;198.93;98.07;;;153.60;2252.80;;;;;;4771692;30;20177;-58
2021/12/10 11:17:54;;;;;;;226.23;108.47;;;153.60;2252.80;;;;;;4772911;30;20039;-59
2021/12/10 11:20:28;;;;;;;143.13;71.93;;;153.70;2252.80;;;;;;4773006;30;20126;-58
2021/12/10 11:23:13;;;;;;;403.73;153.10;;;153.70;2252.80;;;;;;4772956;30;20035;-60
2021/12/10 11:25:53;;;;;;;159.88;78.10;;;153.70;2252.80;;;;;;4771067;30;20031;-57
2021/12/10 11:28:31;;;;;;;191.82;90.70;;;153.60;2252.80;;;;;;4772649;30;20510;-58
2021/12/10 11:31:04;;;;;;;228.80;104.68;;;153.60;2252.80;;;;;;4772655;30;20390;-57
2021/12/10 11:33:40;;;;;;;372.08;157.48;;;128.90;2252.80;;;;;;4773116;30;20066;-57
2021/12/10 11:36:22;;;;;;;261.92;119.60;;;128.90;2252.80;;;;;;4767834;30;20041;-58
2021/12/10 11:38:51;;;;;;;162.90;85.60;;;128.90;2252.80;;;;;;4756472;30;20037;-57
2021/12/10 11:41:23;;;;;;;135.60;72.80;;;128.90;2252.80;;;;;;4769585;30;20039;-69
2021/12/10 11:44:07;;;;;;;147.00;76.63;;;128.90;2252.80;;;;;;4763677;30;20115;-61
2021/12/10 11:46:51;;;;;;;102.10;55.47;;;153.60;2252.80;;;;;;4765676;30;20516;-57
2021/12/10 11:49:27;;;;;;;188.60;99.10;;;153.70;2252.80;;;;;;4764310;30;20086;-58
2021/12/10 11:51:58;;;;;;;262.48;135.35;;;154.00;2252.80;;;;;;4769856;30;20035;-58
2021/12/10 11:54:31;;;;;;;156.93;83.90;;;154.50;2252.80;;;;;;4770875;30;20061;-57
2021/12/10 11:57:18;;;;;;;119.07;66.47;;;179.20;2252.80;;;;;;4769556;30;20097;-57
2021/12/10 11:59:57;;;;;;;121.75;66.35;;;154.50;2252.80;;;;;;4762052;30;20046;-57
2021/12/10 12:02:55;;;;;;;106.68;60.33;;;154.50;2252.80;;;;;;4770772;30;20043;-56
2021/12/10 12:05:30;;;;;;;88.38;50.90;;;154.50;2252.80;;;;;;4759687;30;20055;-57
2021/12/10 12:08:00;;;;;;;70.20;40.35;;;154.30;2252.80;;;;;;4766909;30;20040;-59
2021/12/10 12:10:39;;;;;;;72.68;42.03;;;154.30;2252.80;;;;;;4767190;30;20071;-60
2021/12/10 12:13:21;;;;;;;72.60;40.22;;;154.20;2252.80;;;;;;4768537;30;20134;-57
2021/12/10 12:15:53;;;;;;;118.88;66.78;;;154.10;2252.80;;;;;;4767172;30;20051;-61
2021/12/10 12:18:29;;;;;;;102.80;55.80;;;154.00;2252.80;;;;;;4769335;30;20451;-57
2021/12/10 12:20:58;;;;;;;93.85;50.80;;;153.90;2252.80;;;;;;4760277;30;20043;-57
2021/12/10 12:26:27;;;;;;;110.10;71.97;;;153.90;2252.80;;;;;;4764946;30;20063;-58